Astana, Kazakhstan
Current Conditions -  °F | °C
As of 10:00 AM on Wednesday 28 Jan 2015 (Local Time) from UACC Reporting Station
Clear Clear  
Wind Chill: -35°   Ceiling: Unl
Heat Index: -18°   Visibility: 6mi
Dew Point: -26°   Wind: 7mph
Humidity: 70%   Direction: 210°SSW
Pressure: 30.62"   Gusts: NA
Location:  51.17°N, 71.5°E
Report Text: UACC 280400Z 21003MPS CAVOK M28/M32 Q1037 R22/8/0065 NOSIG RMKQFE746/0995
Loading
Personal Weather Stations






























Interactive Weather Map New forecast layout! Learn more

10-Day Weather Forecast

Advertisements
Track Severe Weather on mobile